sensor_id;sensor_type;location;lat;lon;timestamp;temperature;humidity
73688;SHT30;62257;48.376;-4.378;2022-08-05T00:00:47;15.18;70.36
73688;SHT30;62257;48.376;-4.378;2022-08-05T00:03:12;15.17;70.80
73688;SHT30;62257;48.376;-4.378;2022-08-05T00:05:38;15.16;71.51
73688;SHT30;62257;48.376;-4.378;2022-08-05T00:08:04;15.20;70.36
73688;SHT30;62257;48.376;-4.378;2022-08-05T00:10:29;15.25;70.03
73688;SHT30;62257;48.376;-4.378;2022-08-05T00:12:54;15.24;70.96
73688;SHT30;62257;48.376;-4.378;2022-08-05T00:15:20;15.27;70.25
73688;SHT30;62257;48.376;-4.378;2022-08-05T00:17:45;15.18;71.16
73688;SHT30;62257;48.376;-4.378;2022-08-05T00:20:11;15.17;71.24
73688;SHT30;62257;48.376;-4.378;2022-08-05T00:22:36;15.27;70.83
73688;SHT30;62257;48.376;-4.378;2022-08-05T00:25:02;15.31;70.72
73688;SHT30;62257;48.376;-4.378;2022-08-05T00:27:28;15.30;70.92
73688;SHT30;62257;48.376;-4.378;2022-08-05T00:29:55;15.27;71.55
73688;SHT30;62257;48.376;-4.378;2022-08-05T00:32:20;15.27;71.20
73688;SHT30;62257;48.376;-4.378;2022-08-05T00:34:45;15.23;71.15
73688;SHT30;62257;48.376;-4.378;2022-08-05T00:37:11;15.21;71.74
73688;SHT30;62257;48.376;-4.378;2022-08-05T00:39:36;15.20;71.36
73688;SHT30;62257;48.376;-4.378;2022-08-05T00:42:02;15.18;71.79
73688;SHT30;62257;48.376;-4.378;2022-08-05T00:44:27;15.14;72.20
73688;SHT30;62257;48.376;-4.378;2022-08-05T00:46:53;15.12;72.18
73688;SHT30;62257;48.376;-4.378;2022-08-05T00:49:18;15.17;72.12
73688;SHT30;62257;48.376;-4.378;2022-08-05T00:51:45;15.11;71.85
73688;SHT30;62257;48.376;-4.378;2022-08-05T00:54:11;15.12;72.24
73688;SHT30;62257;48.376;-4.378;2022-08-05T00:56:36;15.11;72.46
73688;SHT30;62257;48.376;-4.378;2022-08-05T00:59:02;15.12;71.72
73688;SHT30;62257;48.376;-4.378;2022-08-05T01:01:27;15.10;72.15
73688;SHT30;62257;48.376;-4.378;2022-08-05T01:03:53;15.07;73.06
73688;SHT30;62257;48.376;-4.378;2022-08-05T01:06:18;15.11;72.36
73688;SHT30;62257;48.376;-4.378;2022-08-05T01:08:44;15.12;72.36
73688;SHT30;62257;48.376;-4.378;2022-08-05T01:13:51;15.14;72.36
73688;SHT30;62257;48.376;-4.378;2022-08-05T01:16:25;15.14;72.30
73688;SHT30;62257;48.376;-4.378;2022-08-05T01:19:14;15.14;72.57
73688;SHT30;62257;48.376;-4.378;2022-08-05T01:22:24;15.21;71.82
73688;SHT30;62257;48.376;-4.378;2022-08-05T01:28:23;15.20;72.12
73688;SHT30;62257;48.376;-4.378;2022-08-05T01:30:53;15.20;71.56
73688;SHT30;62257;48.376;-4.378;2022-08-05T01:33:25;15.16;71.87
73688;SHT30;62257;48.376;-4.378;2022-08-05T01:35:54;15.07;72.27
73688;SHT30;62257;48.376;-4.378;2022-08-05T01:38:21;15.07;72.43
73688;SHT30;62257;48.376;-4.378;2022-08-05T01:40:48;15.03;72.60
73688;SHT30;62257;48.376;-4.378;2022-08-05T01:43:15;15.08;72.19
73688;SHT30;62257;48.376;-4.378;2022-08-05T01:45:42;15.03;72.47
73688;SHT30;62257;48.376;-4.378;2022-08-05T01:48:08;15.03;72.50
73688;SHT30;62257;48.376;-4.378;2022-08-05T01:50:39;15.03;72.47
73688;SHT30;62257;48.376;-4.378;2022-08-05T01:53:12;15.11;71.93
73688;SHT30;62257;48.376;-4.378;2022-08-05T01:55:41;15.17;71.71
73688;SHT30;62257;48.376;-4.378;2022-08-05T01:58:09;15.14;71.48
73688;SHT30;62257;48.376;-4.378;2022-08-05T02:00:39;15.14;71.61
73688;SHT30;62257;48.376;-4.378;2022-08-05T02:03:11;15.11;71.38
73688;SHT30;62257;48.376;-4.378;2022-08-05T02:05:39;15.06;71.77
73688;SHT30;62257;48.376;-4.378;2022-08-05T02:08:06;15.04;71.42
73688;SHT30;62257;48.376;-4.378;2022-08-05T02:10:38;15.01;71.36
73688;SHT30;62257;48.376;-4.378;2022-08-05T02:13:17;14.98;72.06
73688;SHT30;62257;48.376;-4.378;2022-08-05T02:15:48;15.00;71.54
73688;SHT30;62257;48.376;-4.378;2022-08-05T02:18:23;14.97;71.42
73688;SHT30;62257;48.376;-4.378;2022-08-05T02:20:54;14.98;71.81
73688;SHT30;62257;48.376;-4.378;2022-08-05T02:23:25;14.94;71.47
73688;SHT30;62257;48.376;-4.378;2022-08-05T02:25:53;14.94;71.95
73688;SHT30;62257;48.376;-4.378;2022-08-05T02:28:24;14.93;71.51
73688;SHT30;62257;48.376;-4.378;2022-08-05T02:31:05;14.89;72.18
73688;SHT30;62257;48.376;-4.378;2022-08-05T02:33:34;14.86;72.08
73688;SHT30;62257;48.376;-4.378;2022-08-05T02:36:02;14.90;71.34
73688;SHT30;62257;48.376;-4.378;2022-08-05T02:38:29;14.91;71.40
73688;SHT30;62257;48.376;-4.378;2022-08-05T02:40:57;14.93;71.37
73688;SHT30;62257;48.376;-4.378;2022-08-05T02:43:23;14.86;71.61
73688;SHT30;62257;48.376;-4.378;2022-08-05T02:45:51;14.84;71.46
73688;SHT30;62257;48.376;-4.378;2022-08-05T02:48:18;14.80;72.16
73688;SHT30;62257;48.376;-4.378;2022-08-05T02:50:45;14.79;71.84
73688;SHT30;62257;48.376;-4.378;2022-08-05T02:53:13;14.76;71.83
73688;SHT30;62257;48.376;-4.378;2022-08-05T02:55:39;14.76;72.60
73688;SHT30;62257;48.376;-4.378;2022-08-05T02:58:05;14.73;72.52
73688;SHT30;62257;48.376;-4.378;2022-08-05T03:00:32;14.72;72.05
73688;SHT30;62257;48.376;-4.378;2022-08-05T03:03:00;14.70;72.32
73688;SHT30;62257;48.376;-4.378;2022-08-05T03:05:26;14.68;72.70
73688;SHT30;62257;48.376;-4.378;2022-08-05T03:07:52;14.65;72.46
73688;SHT30;62257;48.376;-4.378;2022-08-05T03:10:19;14.63;72.81
73688;SHT30;62257;48.376;-4.378;2022-08-05T03:12:45;14.63;72.27
73688;SHT30;62257;48.376;-4.378;2022-08-05T03:15:11;14.59;72.72
73688;SHT30;62257;48.376;-4.378;2022-08-05T03:17:37;14.56;72.88
73688;SHT30;62257;48.376;-4.378;2022-08-05T03:20:04;14.58;73.12
73688;SHT30;62257;48.376;-4.378;2022-08-05T03:22:30;14.56;72.66
73688;SHT30;62257;48.376;-4.378;2022-08-05T03:24:56;14.55;72.94
73688;SHT30;62257;48.376;-4.378;2022-08-05T03:27:22;14.49;73.13
73688;SHT30;62257;48.376;-4.378;2022-08-05T03:29:48;14.49;72.84
73688;SHT30;62257;48.376;-4.378;2022-08-05T03:32:14;14.48;72.79
73688;SHT30;62257;48.376;-4.378;2022-08-05T03:34:40;14.43;72.98
73688;SHT30;62257;48.376;-4.378;2022-08-05T03:37:05;14.41;73.07
73688;SHT30;62257;48.376;-4.378;2022-08-05T03:39:31;14.42;73.21
73688;SHT30;62257;48.376;-4.378;2022-08-05T03:41:57;14.38;73.28
73688;SHT30;62257;48.376;-4.378;2022-08-05T03:44:23;14.33;73.08
73688;SHT30;62257;48.376;-4.378;2022-08-05T03:46:49;14.32;73.05
73688;SHT30;62257;48.376;-4.378;2022-08-05T03:49:14;14.28;73.00
73688;SHT30;62257;48.376;-4.378;2022-08-05T03:52:01;14.26;72.78
73688;SHT30;62257;48.376;-4.378;2022-08-05T03:54:41;14.26;72.63
73688;SHT30;62257;48.376;-4.378;2022-08-05T03:57:10;14.25;72.95
73688;SHT30;62257;48.376;-4.378;2022-08-05T03:59:41;14.24;72.74
73688;SHT30;62257;48.376;-4.378;2022-08-05T04:02:09;14.20;72.77
73688;SHT30;62257;48.376;-4.378;2022-08-05T04:04:35;14.20;72.98
73688;SHT30;62257;48.376;-4.378;2022-08-05T04:07:02;14.15;73.08
73688;SHT30;62257;48.376;-4.378;2022-08-05T04:09:28;14.11;73.31
73688;SHT30;62257;48.376;-4.378;2022-08-05T04:11:55;14.08;73.58
73688;SHT30;62257;48.376;-4.378;2022-08-05T04:14:21;14.08;73.35
73688;SHT30;62257;48.376;-4.378;2022-08-05T04:16:47;14.08;72.74
73688;SHT30;62257;48.376;-4.378;2022-08-05T04:19:13;14.10;72.87
73688;SHT30;62257;48.376;-4.378;2022-08-05T04:21:39;14.07;72.98
73688;SHT30;62257;48.376;-4.378;2022-08-05T04:24:05;14.07;72.90
73688;SHT30;62257;48.376;-4.378;2022-08-05T04:26:31;14.10;72.65
73688;SHT30;62257;48.376;-4.378;2022-08-05T04:28:57;14.10;72.81
73688;SHT30;62257;48.376;-4.378;2022-08-05T04:31:22;14.08;73.04
73688;SHT30;62257;48.376;-4.378;2022-08-05T04:33:47;14.10;72.87
73688;SHT30;62257;48.376;-4.378;2022-08-05T04:36:13;14.07;72.81
73688;SHT30;62257;48.376;-4.378;2022-08-05T04:38:41;14.07;73.01
73688;SHT30;62257;48.376;-4.378;2022-08-05T04:41:06;14.08;72.67
73688;SHT30;62257;48.376;-4.378;2022-08-05T04:43:32;14.10;73.14
73688;SHT30;62257;48.376;-4.378;2022-08-05T04:45:57;14.13;72.78
73688;SHT30;62257;48.376;-4.378;2022-08-05T04:48:23;14.13;72.62
73688;SHT30;62257;48.376;-4.378;2022-08-05T04:50:48;14.13;72.92
73688;SHT30;62257;48.376;-4.378;2022-08-05T04:53:15;14.11;73.26
73688;SHT30;62257;48.376;-4.378;2022-08-05T04:55:42;14.13;72.73
73688;SHT30;62257;48.376;-4.378;2022-08-05T04:58:09;14.10;72.80
73688;SHT30;62257;48.376;-4.378;2022-08-05T05:00:36;14.13;72.85
73688;SHT30;62257;48.376;-4.378;2022-08-05T05:03:03;14.14;72.93
73688;SHT30;62257;48.376;-4.378;2022-08-05T05:05:29;14.17;72.77
73688;SHT30;62257;48.376;-4.378;2022-08-05T05:07:59;14.15;73.04
73688;SHT30;62257;48.376;-4.378;2022-08-05T05:10:25;14.17;72.84
73688;SHT30;62257;48.376;-4.378;2022-08-05T05:12:51;14.17;73.14
73688;SHT30;62257;48.376;-4.378;2022-08-05T05:15:16;14.18;72.94
73688;SHT30;62257;48.376;-4.378;2022-08-05T05:17:42;14.21;72.68
73688;SHT30;62257;48.376;-4.378;2022-08-05T05:20:09;14.22;72.83
73688;SHT30;62257;48.376;-4.378;2022-08-05T05:22:35;14.25;72.49
73688;SHT30;62257;48.376;-4.378;2022-08-05T05:25:01;14.26;72.90
73688;SHT30;62257;48.376;-4.378;2022-08-05T05:27:28;14.28;72.81
73688;SHT30;62257;48.376;-4.378;2022-08-05T05:29:53;14.26;72.96
73688;SHT30;62257;48.376;-4.378;2022-08-05T05:32:19;14.28;73.04
73688;SHT30;62257;48.376;-4.378;2022-08-05T05:34:44;14.29;72.91
73688;SHT30;62257;48.376;-4.378;2022-08-05T05:37:11;14.32;72.69
73688;SHT30;62257;48.376;-4.378;2022-08-05T05:39:37;14.38;72.76
73688;SHT30;62257;48.376;-4.378;2022-08-05T05:42:03;14.42;73.13
73688;SHT30;62257;48.376;-4.378;2022-08-05T05:44:28;14.46;72.85
73688;SHT30;62257;48.376;-4.378;2022-08-05T05:46:53;14.52;72.89
73688;SHT30;62257;48.376;-4.378;2022-08-05T05:49:19;14.56;72.63
73688;SHT30;62257;48.376;-4.378;2022-08-05T05:51:44;14.63;72.57
73688;SHT30;62257;48.376;-4.378;2022-08-05T05:54:10;14.66;72.47
73688;SHT30;62257;48.376;-4.378;2022-08-05T05:56:35;14.72;71.97
73688;SHT30;62257;48.376;-4.378;2022-08-05T05:59:02;14.80;72.21
73688;SHT30;62257;48.376;-4.378;2022-08-05T06:01:27;14.89;72.14
73688;SHT30;62257;48.376;-4.378;2022-08-05T06:03:53;14.98;71.73
73688;SHT30;62257;48.376;-4.378;2022-08-05T06:06:18;15.10;71.29
73688;SHT30;62257;48.376;-4.378;2022-08-05T06:08:44;15.14;71.06
73688;SHT30;62257;48.376;-4.378;2022-08-05T06:11:09;15.20;71.13
73688;SHT30;62257;48.376;-4.378;2022-08-05T06:13:34;15.24;71.02
73688;SHT30;62257;48.376;-4.378;2022-08-05T06:16:00;15.28;71.02
73688;SHT30;62257;48.376;-4.378;2022-08-05T06:18:25;15.35;70.61
73688;SHT30;62257;48.376;-4.378;2022-08-05T06:20:51;15.41;70.50
73688;SHT30;62257;48.376;-4.378;2022-08-05T06:23:16;15.45;70.52
73688;SHT30;62257;48.376;-4.378;2022-08-05T06:25:41;15.54;70.38
73688;SHT30;62257;48.376;-4.378;2022-08-05T06:28:07;15.61;70.15
73688;SHT30;62257;48.376;-4.378;2022-08-05T06:30:32;15.73;69.81
73688;SHT30;62257;48.376;-4.378;2022-08-05T06:32:58;15.85;69.35
73688;SHT30;62257;48.376;-4.378;2022-08-05T06:35:23;15.99;69.16
73688;SHT30;62257;48.376;-4.378;2022-08-05T06:37:49;16.14;69.14
73688;SHT30;62257;48.376;-4.378;2022-08-05T06:40:14;16.31;68.39
73688;SHT30;62257;48.376;-4.378;2022-08-05T06:42:40;16.44;68.37
73688;SHT30;62257;48.376;-4.378;2022-08-05T06:45:07;16.59;68.29
73688;SHT30;62257;48.376;-4.378;2022-08-05T06:47:32;16.77;67.51
73688;SHT30;62257;48.376;-4.378;2022-08-05T06:49:58;16.90;67.23
73688;SHT30;62257;48.376;-4.378;2022-08-05T06:52:23;17.12;66.95
73688;SHT30;62257;48.376;-4.378;2022-08-05T06:54:49;17.26;66.01
73688;SHT30;62257;48.376;-4.378;2022-08-05T06:57:14;17.38;64.75
73688;SHT30;62257;48.376;-4.378;2022-08-05T06:59:42;17.55;64.95
73688;SHT30;62257;48.376;-4.378;2022-08-05T07:02:08;17.71;64.48
73688;SHT30;62257;48.376;-4.378;2022-08-05T07:04:33;17.86;63.52
73688;SHT30;62257;48.376;-4.378;2022-08-05T07:06:59;17.96;62.54
73688;SHT30;62257;48.376;-4.378;2022-08-05T07:09:24;18.07;59.95
73688;SHT30;62257;48.376;-4.378;2022-08-05T07:11:50;18.18;60.65
73688;SHT30;62257;48.376;-4.378;2022-08-05T07:14:16;18.30;60.43
73688;SHT30;62257;48.376;-4.378;2022-08-05T07:17:00;18.41;57.64
73688;SHT30;62257;48.376;-4.378;2022-08-05T07:19:26;18.47;57.22
73688;SHT30;62257;48.376;-4.378;2022-08-05T07:21:54;18.54;56.29
73688;SHT30;62257;48.376;-4.378;2022-08-05T07:24:20;18.71;54.63
73688;SHT30;62257;48.376;-4.378;2022-08-05T07:26:47;19.03;55.07
73688;SHT30;62257;48.376;-4.378;2022-08-05T07:29:13;19.18;54.14
73688;SHT30;62257;48.376;-4.378;2022-08-05T07:31:39;19.71;54.23
73688;SHT30;62257;48.376;-4.378;2022-08-05T07:34:05;19.79;53.06
73688;SHT30;62257;48.376;-4.378;2022-08-05T07:36:31;19.77;51.95
73688;SHT30;62257;48.376;-4.378;2022-08-05T07:39:02;19.68;51.98
73688;SHT30;62257;48.376;-4.378;2022-08-05T07:41:28;19.94;50.74
73688;SHT30;62257;48.376;-4.378;2022-08-05T07:43:54;21.43;47.50
73688;SHT30;62257;48.376;-4.378;2022-08-05T07:46:20;21.91;45.17
73688;SHT30;62257;48.376;-4.378;2022-08-05T07:48:45;21.54;45.33
73688;SHT30;62257;48.376;-4.378;2022-08-05T07:51:11;21.70;45.42
73688;SHT30;62257;48.376;-4.378;2022-08-05T07:53:37;22.60;42.97
73688;SHT30;62257;48.376;-4.378;2022-08-05T07:56:03;23.40;40.80
73688;SHT30;62257;48.376;-4.378;2022-08-05T07:58:29;23.82;40.21
73688;SHT30;62257;48.376;-4.378;2022-08-05T08:00:54;23.85;40.07
73688;SHT30;62257;48.376;-4.378;2022-08-05T08:03:20;22.63;42.18
73688;SHT30;62257;48.376;-4.378;2022-08-05T08:05:45;21.45;45.28
73688;SHT30;62257;48.376;-4.378;2022-08-05T08:08:11;20.67;46.55
73688;SHT30;62257;48.376;-4.378;2022-08-05T08:10:38;20.22;48.52
73688;SHT30;62257;48.376;-4.378;2022-08-05T08:13:06;20.98;46.13
73688;SHT30;62257;48.376;-4.378;2022-08-05T08:15:31;22.35;43.73
73688;SHT30;62257;48.376;-4.378;2022-08-05T08:17:57;23.31;40.89
73688;SHT30;62257;48.376;-4.378;2022-08-05T08:20:24;23.38;41.06
73688;SHT30;62257;48.376;-4.378;2022-08-05T08:22:51;23.59;41.09
73688;SHT30;62257;48.376;-4.378;2022-08-05T08:25:17;23.96;39.68
73688;SHT30;62257;48.376;-4.378;2022-08-05T08:27:43;24.31;39.03
73688;SHT30;62257;48.376;-4.378;2022-08-05T08:30:09;24.51;38.12
73688;SHT30;62257;48.376;-4.378;2022-08-05T08:32:38;24.28;38.03
73688;SHT30;62257;48.376;-4.378;2022-08-05T08:35:04;24.31;38.23
73688;SHT30;62257;48.376;-4.378;2022-08-05T08:37:30;24.09;36.43
73688;SHT30;62257;48.376;-4.378;2022-08-05T08:39:55;24.05;36.90
73688;SHT30;62257;48.376;-4.378;2022-08-05T08:42:21;24.05;37.42
73688;SHT30;62257;48.376;-4.378;2022-08-05T08:44:48;23.89;37.50
73688;SHT30;62257;48.376;-4.378;2022-08-05T08:47:15;23.41;37.41
73688;SHT30;62257;48.376;-4.378;2022-08-05T08:49:45;23.24;38.22
73688;SHT30;62257;48.376;-4.378;2022-08-05T08:52:16;23.34;38.12
73688;SHT30;62257;48.376;-4.378;2022-08-05T08:54:44;23.34;38.38
73688;SHT30;62257;48.376;-4.378;2022-08-05T08:57:12;23.17;37.57
73688;SHT30;62257;48.376;-4.378;2022-08-05T08:59:38;23.13;37.97
73688;SHT30;62257;48.376;-4.378;2022-08-05T09:02:05;22.96;36.90
73688;SHT30;62257;48.376;-4.378;2022-08-05T09:04:35;22.90;38.29
73688;SHT30;62257;48.376;-4.378;2022-08-05T09:07:04;22.84;38.64
73688;SHT30;62257;48.376;-4.378;2022-08-05T09:09:32;22.65;38.28
73688;SHT30;62257;48.376;-4.378;2022-08-05T09:11:57;22.46;38.78
73688;SHT30;62257;48.376;-4.378;2022-08-05T09:14:23;22.48;39.05
73688;SHT30;62257;48.376;-4.378;2022-08-05T09:16:49;22.48;39.42
73688;SHT30;62257;48.376;-4.378;2022-08-05T09:19:15;22.51;39.49
73688;SHT30;62257;48.376;-4.378;2022-08-05T09:21:40;22.52;39.24
73688;SHT30;62257;48.376;-4.378;2022-08-05T09:24:07;22.45;39.82
73688;SHT30;62257;48.376;-4.378;2022-08-05T09:26:36;22.28;39.57
73688;SHT30;62257;48.376;-4.378;2022-08-05T09:29:06;22.24;40.08
73688;SHT30;62257;48.376;-4.378;2022-08-05T09:31:33;22.29;40.64
73688;SHT30;62257;48.376;-4.378;2022-08-05T09:34:04;22.42;41.32
73688;SHT30;62257;48.376;-4.378;2022-08-05T09:36:49;22.49;41.68
73688;SHT30;62257;48.376;-4.378;2022-08-05T09:39:18;22.51;40.88
73688;SHT30;62257;48.376;-4.378;2022-08-05T09:44:37;22.41;41.35
73688;SHT30;62257;48.376;-4.378;2022-08-05T09:49:44;22.52;40.54
73688;SHT30;62257;48.376;-4.378;2022-08-05T09:52:18;22.46;40.65
73688;SHT30;62257;48.376;-4.378;2022-08-05T09:57:42;22.34;39.75
73688;SHT30;62257;48.376;-4.378;2022-08-05T10:00:12;22.17;40.75
73688;SHT30;62257;48.376;-4.378;2022-08-05T10:02:41;22.17;40.40
73688;SHT30;62257;48.376;-4.378;2022-08-05T10:05:12;22.11;40.10
73688;SHT30;62257;48.376;-4.378;2022-08-05T10:10:31;21.97;41.81
73688;SHT30;62257;48.376;-4.378;2022-08-05T10:12:59;21.94;41.73
73688;SHT30;62257;48.376;-4.378;2022-08-05T10:15:33;21.97;41.51
73688;SHT30;62257;48.376;-4.378;2022-08-05T10:18:09;21.94;41.35
73688;SHT30;62257;48.376;-4.378;2022-08-05T10:20:39;21.93;41.57
73688;SHT30;62257;48.376;-4.378;2022-08-05T10:23:06;21.56;42.24
73688;SHT30;62257;48.376;-4.378;2022-08-05T10:25:32;21.56;42.90
73688;SHT30;62257;48.376;-4.378;2022-08-05T10:27:58;21.59;43.26
73688;SHT30;62257;48.376;-4.378;2022-08-05T10:30:25;21.59;44.01
73688;SHT30;62257;48.376;-4.378;2022-08-05T10:32:51;21.60;43.99
73688;SHT30;62257;48.376;-4.378;2022-08-05T10:35:18;21.34;43.71
73688;SHT30;62257;48.376;-4.378;2022-08-05T10:37:45;20.94;44.35
73688;SHT30;62257;48.376;-4.378;2022-08-05T10:42:59;20.88;46.22
73688;SHT30;62257;48.376;-4.378;2022-08-05T10:45:26;20.94;44.93
73688;SHT30;62257;48.376;-4.378;2022-08-05T10:47:53;20.85;45.00
73688;SHT30;62257;48.376;-4.378;2022-08-05T10:50:19;20.76;45.73
73688;SHT30;62257;48.376;-4.378;2022-08-05T10:52:49;20.80;45.00
73688;SHT30;62257;48.376;-4.378;2022-08-05T10:55:22;20.83;45.10
73688;SHT30;62257;48.376;-4.378;2022-08-05T10:57:47;20.84;45.50
73688;SHT30;62257;48.376;-4.378;2022-08-05T11:05:24;21.01;43.87
73688;SHT30;62257;48.376;-4.378;2022-08-05T11:07:57;20.85;44.90
73688;SHT30;62257;48.376;-4.378;2022-08-05T11:10:24;20.88;44.68
73688;SHT30;62257;48.376;-4.378;2022-08-05T11:12:50;20.92;45.54
73688;SHT30;62257;48.376;-4.378;2022-08-05T11:15:24;21.04;45.75
73688;SHT30;62257;48.376;-4.378;2022-08-05T11:18:06;21.22;44.77
73688;SHT30;62257;48.376;-4.378;2022-08-05T11:20:42;21.32;44.52
73688;SHT30;62257;48.376;-4.378;2022-08-05T11:23:27;21.39;44.21
73688;SHT30;62257;48.376;-4.378;2022-08-05T11:41:17;21.11;44.41
73688;SHT30;62257;48.376;-4.378;2022-08-05T11:44:03;21.01;44.92
73688;SHT30;62257;48.376;-4.378;2022-08-05T11:46:46;21.14;44.28
73688;SHT30;62257;48.376;-4.378;2022-08-05T11:49:14;21.16;43.59
73688;SHT30;62257;48.376;-4.378;2022-08-05T11:51:41;21.05;42.96
73688;SHT30;62257;48.376;-4.378;2022-08-05T11:54:11;21.21;42.43
73688;SHT30;62257;48.376;-4.378;2022-08-05T11:56:47;21.11;42.32
73688;SHT30;62257;48.376;-4.378;2022-08-05T11:59:21;21.02;42.32
73688;SHT30;62257;48.376;-4.378;2022-08-05T12:01:59;21.12;41.55
73688;SHT30;62257;48.376;-4.378;2022-08-05T12:04:26;21.32;42.92
73688;SHT30;62257;48.376;-4.378;2022-08-05T12:06:53;21.38;42.77
73688;SHT30;62257;48.376;-4.378;2022-08-05T12:09:24;21.28;43.59
73688;SHT30;62257;48.376;-4.378;2022-08-05T12:11:51;21.31;44.43
73688;SHT30;62257;48.376;-4.378;2022-08-05T12:14:16;21.21;43.67
73688;SHT30;62257;48.376;-4.378;2022-08-05T12:16:43;21.16;42.24
73688;SHT30;62257;48.376;-4.378;2022-08-05T12:19:12;21.08;43.10
73688;SHT30;62257;48.376;-4.378;2022-08-05T12:21:46;21.15;43.01
73688;SHT30;62257;48.376;-4.378;2022-08-05T12:24:17;21.26;43.63
73688;SHT30;62257;48.376;-4.378;2022-08-05T12:26:48;21.25;43.80
73688;SHT30;62257;48.376;-4.378;2022-08-05T12:29:18;21.18;44.35
73688;SHT30;62257;48.376;-4.378;2022-08-05T12:31:46;21.21;44.52
73688;SHT30;62257;48.376;-4.378;2022-08-05T12:34:12;21.16;44.30
73688;SHT30;62257;48.376;-4.378;2022-08-05T12:36:38;21.02;44.43
73688;SHT30;62257;48.376;-4.378;2022-08-05T12:39:05;21.02;44.48
73688;SHT30;62257;48.376;-4.378;2022-08-05T12:41:33;21.02;45.42
73688;SHT30;62257;48.376;-4.378;2022-08-05T12:44:10;21.07;44.24
73688;SHT30;62257;48.376;-4.378;2022-08-05T12:46:37;21.01;44.26
73688;SHT30;62257;48.376;-4.378;2022-08-05T12:49:11;20.88;44.97
73688;SHT30;62257;48.376;-4.378;2022-08-05T12:51:54;20.90;44.99
73688;SHT30;62257;48.376;-4.378;2022-08-05T12:54:25;20.84;44.87
73688;SHT30;62257;48.376;-4.378;2022-08-05T12:56:59;20.81;45.39
73688;SHT30;62257;48.376;-4.378;2022-08-05T12:59:29;20.78;45.49
73688;SHT30;62257;48.376;-4.378;2022-08-05T13:02:02;20.76;45.70
73688;SHT30;62257;48.376;-4.378;2022-08-05T13:04:30;20.74;46.42
73688;SHT30;62257;48.376;-4.378;2022-08-05T13:06:57;20.83;45.11
73688;SHT30;62257;48.376;-4.378;2022-08-05T13:09:23;20.74;46.43
73688;SHT30;62257;48.376;-4.378;2022-08-05T13:11:49;20.69;45.38
73688;SHT30;62257;48.376;-4.378;2022-08-05T13:14:15;20.63;46.02
73688;SHT30;62257;48.376;-4.378;2022-08-05T13:16:52;20.57;46.04
73688;SHT30;62257;48.376;-4.378;2022-08-05T13:19:20;20.59;46.56
73688;SHT30;62257;48.376;-4.378;2022-08-05T13:21:47;20.77;46.49
73688;SHT30;62257;48.376;-4.378;2022-08-05T13:24:13;20.85;45.75
73688;SHT30;62257;48.376;-4.378;2022-08-05T13:26:39;20.87;45.34
73688;SHT30;62257;48.376;-4.378;2022-08-05T13:29:04;20.78;45.97
73688;SHT30;62257;48.376;-4.378;2022-08-05T13:31:30;20.71;45.93
73688;SHT30;62257;48.376;-4.378;2022-08-05T13:33:55;20.69;43.86
73688;SHT30;62257;48.376;-4.378;2022-08-05T13:36:21;20.63;44.67
73688;SHT30;62257;48.376;-4.378;2022-08-05T13:38:46;20.59;45.63
73688;SHT30;62257;48.376;-4.378;2022-08-05T13:41:12;20.60;46.04
73688;SHT30;62257;48.376;-4.378;2022-08-05T13:43:39;20.61;46.70
73688;SHT30;62257;48.376;-4.378;2022-08-05T13:46:05;20.60;46.44
73688;SHT30;62257;48.376;-4.378;2022-08-05T13:48:30;20.61;44.66
73688;SHT30;62257;48.376;-4.378;2022-08-05T13:51:07;20.53;44.60
73688;SHT30;62257;48.376;-4.378;2022-08-05T13:53:33;20.47;44.79
73688;SHT30;62257;48.376;-4.378;2022-08-05T13:56:00;20.42;44.91
73688;SHT30;62257;48.376;-4.378;2022-08-05T13:58:25;20.28;44.63
73688;SHT30;62257;48.376;-4.378;2022-08-05T14:00:51;20.25;45.69
73688;SHT30;62257;48.376;-4.378;2022-08-05T14:03:16;20.22;45.59
73688;SHT30;62257;48.376;-4.378;2022-08-05T14:05:41;20.19;46.01
73688;SHT30;62257;48.376;-4.378;2022-08-05T14:08:07;20.19;46.34
73688;SHT30;62257;48.376;-4.378;2022-08-05T14:10:32;20.18;45.44
73688;SHT30;62257;48.376;-4.378;2022-08-05T14:12:59;20.18;46.26
73688;SHT30;62257;48.376;-4.378;2022-08-05T14:15:25;20.18;47.39
73688;SHT30;62257;48.376;-4.378;2022-08-05T14:17:50;20.21;47.89
73688;SHT30;62257;48.376;-4.378;2022-08-05T14:20:16;20.15;47.99
73688;SHT30;62257;48.376;-4.378;2022-08-05T14:22:42;20.16;48.46
73688;SHT30;62257;48.376;-4.378;2022-08-05T14:25:08;20.22;47.90
73688;SHT30;62257;48.376;-4.378;2022-08-05T14:27:34;20.19;47.09
73688;SHT30;62257;48.376;-4.378;2022-08-05T14:30:00;20.25;49.04
73688;SHT30;62257;48.376;-4.378;2022-08-05T14:32:26;20.23;48.77
73688;SHT30;62257;48.376;-4.378;2022-08-05T14:34:51;20.23;48.32
73688;SHT30;62257;48.376;-4.378;2022-08-05T14:37:17;20.23;47.51
73688;SHT30;62257;48.376;-4.378;2022-08-05T14:39:42;20.19;48.17
73688;SHT30;62257;48.376;-4.378;2022-08-05T14:42:08;20.19;48.20
73688;SHT30;62257;48.376;-4.378;2022-08-05T14:44:33;20.21;47.97
73688;SHT30;62257;48.376;-4.378;2022-08-05T14:46:59;20.18;49.10
73688;SHT30;62257;48.376;-4.378;2022-08-05T14:49:24;20.15;48.47
73688;SHT30;62257;48.376;-4.378;2022-08-05T14:51:50;20.08;47.29
73688;SHT30;62257;48.376;-4.378;2022-08-05T14:54:15;20.06;47.04
73688;SHT30;62257;48.376;-4.378;2022-08-05T14:56:41;20.01;48.37
73688;SHT30;62257;48.376;-4.378;2022-08-05T14:59:06;19.95;47.59
73688;SHT30;62257;48.376;-4.378;2022-08-05T15:01:32;19.94;47.40
73688;SHT30;62257;48.376;-4.378;2022-08-05T15:03:57;19.92;47.91
73688;SHT30;62257;48.376;-4.378;2022-08-05T15:06:23;19.96;48.31
73688;SHT30;62257;48.376;-4.378;2022-08-05T15:08:48;20.04;48.28
73688;SHT30;62257;48.376;-4.378;2022-08-05T15:11:16;20.08;47.39
73688;SHT30;62257;48.376;-4.378;2022-08-05T15:13:41;20.11;47.63
73688;SHT30;62257;48.376;-4.378;2022-08-05T15:16:06;20.09;46.92
73688;SHT30;62257;48.376;-4.378;2022-08-05T15:18:32;20.02;47.39
73688;SHT30;62257;48.376;-4.378;2022-08-05T15:20:59;20.09;48.49
73688;SHT30;62257;48.376;-4.378;2022-08-05T15:23:24;20.04;48.15
73688;SHT30;62257;48.376;-4.378;2022-08-05T15:25:50;19.98;48.12
73688;SHT30;62257;48.376;-4.378;2022-08-05T15:28:15;19.95;48.69
73688;SHT30;62257;48.376;-4.378;2022-08-05T15:30:42;19.92;48.56
73688;SHT30;62257;48.376;-4.378;2022-08-05T15:33:08;19.84;48.07
73688;SHT30;62257;48.376;-4.378;2022-08-05T15:35:33;19.84;48.49
73688;SHT30;62257;48.376;-4.378;2022-08-05T15:37:58;19.81;49.60
73688;SHT30;62257;48.376;-4.378;2022-08-05T15:40:24;19.84;49.75
73688;SHT30;62257;48.376;-4.378;2022-08-05T15:42:50;19.85;48.62
73688;SHT30;62257;48.376;-4.378;2022-08-05T15:45:17;19.78;48.89
73688;SHT30;62257;48.376;-4.378;2022-08-05T15:47:44;19.77;48.75
73688;SHT30;62257;48.376;-4.378;2022-08-05T15:50:11;19.79;48.88
73688;SHT30;62257;48.376;-4.378;2022-08-05T15:52:37;19.86;47.80
73688;SHT30;62257;48.376;-4.378;2022-08-05T15:55:04;19.85;48.12
73688;SHT30;62257;48.376;-4.378;2022-08-05T15:57:30;19.84;49.18